Time;durP1;ratioP1;P1;durP2;ratioP2;P2;SDS_P1;SDS_P2;PMS_P1;PMS_P2;Temp;Humidity;BMP_temperature;BMP_pressure;BME280_temperature;BME280_humidity;BME280_pressure;Samples;Min_cycle;Max_cycle;Signal;HPM_P1;HPM_P2
2021/04/10 00:01:50;;;;;;;19.42;15.55;;;;;;;10.09;66.53;99885.53;5095377;28;20063;-64
2021/04/10 00:04:20;;;;;;;17.00;14.90;;;;;;;10.11;66.52;99884.06;5095907;28;20488;-64
2021/04/10 00:06:47;;;;;;;;;;;;;;;10.05;66.59;99879.00;5095102;28;20059;-64
2021/04/10 00:09:14;;;;;;;20.55;16.50;;;;;;;10.03;66.71;99876.53;5096087;28;19931;-64
2021/04/10 00:11:41;;;;;;;19.40;16.40;;;;;;;10.06;66.88;99864.75;5095770;28;20507;-64
2021/04/10 00:14:11;;;;;;;20.42;16.83;;;;;;;10.03;67.18;99870.16;5095552;28;20055;-64
2021/04/10 00:16:38;;;;;;;23.35;18.55;;;;;;;9.99;67.56;99867.19;5095519;28;20048;-64
2021/04/10 00:19:05;;;;;;;23.55;19.25;;;;;;;9.95;67.30;99868.97;5095980;28;20052;-64
2021/04/10 00:21:36;;;;;;;22.83;18.92;;;;;;;9.89;67.13;99864.72;5095340;28;20074;-64
2021/04/10 00:24:03;;;;;;;28.00;21.92;;;;;;;9.86;68.15;99870.94;5095023;28;20414;-64
2021/04/10 00:26:30;;;;;;;27.25;21.98;;;;;;;9.84;69.16;99867.66;5096168;28;20078;-64
2021/04/10 00:28:56;;;;;;;23.88;20.05;;;;;;;9.81;69.41;99862.75;5095487;28;20048;-64
2021/04/10 00:31:23;;;;;;;28.60;21.45;;;;;;;9.85;69.07;99860.94;5095020;28;20408;-64
2021/04/10 00:33:50;;;;;;;24.17;19.10;;;;;;;9.85;69.07;99853.44;5095459;28;20063;-64
2021/04/10 00:36:17;;;;;;;21.38;17.80;;;;;;;9.86;69.03;99851.47;5095436;28;20048;-64
2021/04/10 00:38:45;;;;;;;24.23;19.75;;;;;;;9.84;69.33;99851.78;5095207;28;20048;-65
2021/04/10 00:41:13;;;;;;;23.25;19.02;;;;;;;9.81;69.20;99855.22;5095710;28;20052;-64
2021/04/10 00:43:40;;;;;;;25.27;18.85;;;;;;;9.81;68.32;99855.22;5095049;28;20051;-65
2021/04/10 00:46:08;;;;;;;24.60;19.42;;;;;;;9.78;68.83;99843.94;5095732;28;20048;-65
2021/04/10 00:48:35;;;;;;;22.45;18.83;;;;;;;9.78;68.37;99844.75;5095028;28;20393;-65
2021/04/10 00:51:03;;;;;;;21.92;18.75;;;;;;;9.80;68.38;99844.44;5095450;28;20403;-64
2021/04/10 00:53:34;;;;;;;26.85;21.58;;;;;;;9.70;69.48;99838.03;5094849;28;20040;-64
2021/04/10 00:56:04;;;;;;;24.90;20.50;;;;;;;9.70;69.04;99845.53;5095757;28;20048;-65
2021/04/10 00:58:31;;;;;;;25.63;21.42;;;;;;;9.67;69.50;99851.75;5094673;28;20493;-65
2021/04/10 01:00:58;;;;;;;26.05;19.83;;;;;;;9.69;70.43;99855.03;5095427;28;20056;-64
2021/04/10 01:03:25;;;;;;;25.75;20.92;;;;;;;9.70;69.89;99857.50;5095124;28;20481;-64
2021/04/10 01:05:52;;;;;;;31.42;23.75;;;;;;;9.73;70.61;99864.38;5094449;28;20052;-64
2021/04/10 01:08:19;;;;;;;26.83;20.83;;;;;;;9.75;70.71;99860.13;5094541;28;20047;-64
2021/04/10 01:10:46;;;;;;;25.35;21.75;;;;;;;9.77;70.40;99856.22;5095096;28;20056;-64
2021/04/10 01:13:36;;;;;;;25.52;20.92;;;;;;;9.82;70.44;99865.19;5094887;28;20048;-64
2021/04/10 01:16:08;;;;;;;24.02;21.13;;;;;;;9.82;70.17;99861.59;5095088;28;20056;-64
2021/04/10 01:18:45;;;;;;;27.10;20.98;;;;;;;9.82;70.35;99862.41;5095126;28;20059;-64
2021/04/10 01:21:24;;;;;;;26.95;20.83;;;;;;;9.85;69.93;99864.56;5094559;28;20063;-64
2021/04/10 01:24:13;;;;;;;28.83;21.33;;;;;;;9.86;69.93;99848.69;5094336;28;20051;-64
2021/04/10 01:27:01;;;;;;;26.73;21.05;;;;;;;9.85;69.89;99863.72;5094865;28;20048;-64
2021/04/10 01:29:32;;;;;;;28.30;21.17;;;;;;;9.86;69.69;99849.50;5094907;28;20382;-64
2021/04/10 01:32:00;;;;;;;31.55;23.73;;;;;;;9.87;69.88;99845.59;5095150;28;20055;-64
2021/04/10 01:34:31;;;;;;;32.83;22.85;;;;;;;9.86;70.49;99855.06;5094432;28;20417;-64
2021/04/10 01:37:06;;;;;;;27.25;21.92;;;;;;;9.88;70.32;99863.09;5094327;28;20052;-64
2021/04/10 01:39:34;;;;;;;26.77;21.48;;;;;;;9.87;69.76;99862.28;5093924;28;20051;-64
2021/04/10 01:42:03;;;;;;;29.70;22.08;;;;;;;9.88;69.51;99858.34;5093720;28;20055;-64
2021/04/10 01:44:31;;;;;;;29.45;21.30;;;;;;;9.85;70.46;99859.00;5094007;28;20052;-64
2021/04/10 01:47:04;;;;;;;30.52;22.98;;;;;;;9.88;70.34;99868.66;5094670;28;20044;-64
2021/04/10 01:49:32;;;;;;;28.40;22.42;;;;;;;9.86;70.04;99863.41;5094594;28;20052;-64
2021/04/10 01:51:59;;;;;;;29.20;23.17;;;;;;;9.87;69.75;99867.84;5093793;28;20159;-64
2021/04/10 01:54:26;;;;;;;31.77;23.83;;;;;;;9.87;70.40;99872.56;5093835;28;20056;-64
2021/04/10 01:56:54;;;;;;;31.73;24.58;;;;;;;9.87;70.23;99862.28;5093892;28;20044;-64
2021/04/10 01:59:22;;;;;;;30.70;22.73;;;;;;;9.87;69.86;99856.72;5093542;28;20048;-64
2021/04/10 02:01:53;;;;;;;31.38;23.08;;;;;;;9.89;69.50;99859.16;5094348;28;20056;-64
2021/04/10 02:04:21;;;;;;;32.15;24.05;;;;;;;9.92;69.88;99867.69;5093710;28;20416;-64
2021/04/10 02:06:49;;;;;;;31.42;24.27;;;;;;;9.92;70.18;99859.34;5091043;28;20060;-64
2021/04/10 02:09:18;;;;;;;33.22;24.40;;;;;;;9.95;70.62;99872.59;5093927;28;20059;-64
2021/04/10 02:11:51;;;;;;;27.15;23.02;;;;;;;9.96;69.40;99878.97;5093306;28;20412;-64
2021/04/10 02:14:21;;;;;;;32.90;23.30;;;;;;;9.95;69.95;99883.72;5093691;28;20059;-64
2021/04/10 02:16:50;;;;;;;30.80;23.15;;;;;;;9.92;69.95;99878.00;5093824;28;20416;-64
2021/04/10 02:19:17;;;;;;;27.83;23.63;;;;;;;9.90;70.65;99881.09;5093593;28;20052;-64
2021/04/10 02:21:44;;;;;;;26.20;21.95;;;;;;;9.96;69.74;99876.19;5093246;28;20067;-64
2021/04/10 02:24:12;;;;;;;24.45;20.63;;;;;;;9.98;69.11;99873.91;5092724;28;20059;-64
2021/04/10 02:26:39;;;;;;;27.58;21.38;;;;;;;9.94;69.38;99872.94;5093572;28;20056;-64
2021/04/10 02:29:06;;;;;;;26.10;21.63;;;;;;;9.96;69.56;99873.41;5093140;28;20044;-64
2021/04/10 02:31:48;;;;;;;24.15;20.90;;;;;;;9.94;69.32;99870.94;5092869;28;20067;-64
2021/04/10 02:34:21;;;;;;;24.85;21.55;;;;;;;9.97;69.29;99880.59;5092605;28;20044;-64
2021/04/10 02:36:50;;;;;;;26.45;23.23;;;;;;;9.97;69.58;99883.38;5092900;28;20051;-64
2021/04/10 02:39:19;;;;;;;27.30;21.05;;;;;;;9.98;69.13;99882.25;5092850;28;20048;-64
2021/04/10 02:41:48;;;;;;;26.67;21.60;;;;;;;9.96;69.04;99876.19;5093038;28;20063;-64
2021/04/10 02:44:20;;;;;;;26.75;22.05;;;;;;;9.98;68.11;99871.13;5093079;28;20052;-64
2021/04/10 02:46:50;;;;;;;25.67;21.58;;;;;;;9.94;68.30;99870.16;5092983;28;20055;-64
2021/04/10 02:49:23;;;;;;;25.58;22.58;;;;;;;9.89;68.95;99864.72;5093243;28;20056;-64
2021/04/10 02:51:54;;;;;;;28.17;24.30;;;;;;;9.85;68.95;99863.72;5093151;28;20056;-64
2021/04/10 02:54:24;;;;;;;32.25;25.80;;;;;;;9.80;69.16;99873.06;5092733;28;20457;-64
2021/04/10 02:56:56;;;;;;;31.88;25.17;;;;;;;9.74;69.03;99864.06;5093124;28;20400;-64
2021/04/10 02:59:24;;;;;;;32.70;25.20;;;;;;;9.64;69.58;99864.34;5092309;28;20469;-64
2021/04/10 03:01:52;;;;;;;31.60;26.15;;;;;;;9.67;70.09;99869.25;5092833;28;20503;-64
2021/04/10 03:04:20;;;;;;;30.20;25.52;;;;;;;9.67;69.57;99868.44;5092376;28;20055;-64
2021/04/10 03:06:48;;;;;;;29.55;24.67;;;;;;;9.60;70.03;99879.25;5091919;28;20067;-64
2021/04/10 03:09:15;;;;;;;31.65;25.33;;;;;;;9.58;70.18;99874.00;5092619;28;20063;-64
2021/04/10 03:11:42;;;;;;;31.05;25.42;;;;;;;9.61;69.75;99872.53;5092337;28;20048;-64
2021/04/10 03:14:10;;;;;;;30.33;24.80;;;;;;;9.59;69.67;99872.84;5092025;28;20051;-64
2021/04/10 03:16:40;;;;;;;26.95;23.88;;;;;;;9.63;70.43;99878.56;5092653;28;20056;-64
2021/04/10 03:19:11;;;;;;;29.77;23.92;;;;;;;9.70;70.00;99884.47;5092284;28;20051;-65
2021/04/10 03:21:40;;;;;;;30.13;24.30;;;;;;;9.67;69.95;99871.22;5072221;28;20060;-64
2021/04/10 03:24:08;;;;;;;35.33;27.05;;;;;;;9.71;70.47;99877.78;5079388;28;20059;-64
2021/04/10 03:26:35;;;;;;;28.33;23.38;;;;;;;9.72;69.55;99860.78;5092542;28;20181;-64
2021/04/10 03:29:03;;;;;;;31.88;24.73;;;;;;;9.69;69.55;99853.06;5092289;28;20063;-64
2021/04/10 03:31:33;;;;;;;34.10;26.27;;;;;;;9.56;70.17;99865.16;5092050;28;20063;-64
2021/04/10 03:34:00;;;;;;;36.30;28.13;;;;;;;9.48;69.88;99871.50;5092510;28;20048;-64
2021/04/10 03:36:27;;;;;;;35.70;28.48;;;;;;;9.51;70.56;99888.38;5092638;28;20043;-64
2021/04/10 03:38:55;;;;;;;35.60;27.30;;;;;;;9.50;70.95;99880.34;5091152;28;20060;-64
2021/04/10 03:41:22;;;;;;;32.63;26.92;;;;;;;9.54;70.56;99896.06;5091817;28;20052;-64
2021/04/10 03:43:50;;;;;;;34.97;26.27;;;;;;;9.59;70.79;99899.81;5092532;28;20051;-64
2021/04/10 03:46:17;;;;;;;31.45;24.83;;;;;;;9.61;71.07;99903.91;5092366;28;20052;-64
2021/04/10 03:48:44;;;;;;;30.85;24.48;;;;;;;9.63;70.93;99901.63;5092045;28;20052;-64
2021/04/10 03:51:12;;;;;;;30.83;25.23;;;;;;;9.65;70.68;99909.66;5092146;28;20052;-64
2021/04/10 03:53:39;;;;;;;28.17;25.00;;;;;;;9.69;70.97;99917.03;5091548;28;20052;-64
2021/04/10 03:56:07;;;;;;;32.42;25.73;;;;;;;9.73;70.88;99912.47;5092130;28;20059;-64
2021/04/10 03:58:34;;;;;;;29.80;25.73;;;;;;;9.77;70.57;99914.63;5091757;28;20055;-64
2021/04/10 04:01:01;;;;;;;32.55;25.60;;;;;;;9.78;70.46;99925.41;5092470;28;20063;-64
2021/04/10 04:03:28;;;;;;;31.48;25.30;;;;;;;9.80;70.19;99919.53;5092625;28;20059;-64
2021/04/10 04:05:55;;;;;;;32.75;26.13;;;;;;;9.80;70.22;99919.53;5085507;28;20420;-64
2021/04/10 04:08:22;;;;;;;29.23;25.63;;;;;;;9.80;69.92;99917.56;5074634;28;20067;-64
2021/04/10 04:10:48;;;;;;;29.13;24.90;;;;;;;9.75;70.49;99917.72;5092007;28;20171;-64
2021/04/10 04:13:16;;;;;;;30.38;26.20;;;;;;;9.79;70.45;99909.56;5091804;28;20063;-64
2021/04/10 04:15:43;;;;;;;28.80;25.00;;;;;;;9.82;70.75;99915.28;5091475;28;20058;-65
2021/04/10 04:18:10;;;;;;;34.80;26.17;;;;;;;9.85;70.07;99919.34;5092029;28;20048;-64
2021/04/10 04:20:37;;;;;;;29.30;25.02;;;;;;;9.85;70.46;99931.31;5092358;28;20048;-64
2021/04/10 04:23:04;;;;;;;36.97;27.77;;;;;;;9.90;70.35;99933.13;5091763;28;20485;-64
2021/04/10 04:25:31;;;;;;;33.25;26.98;;;;;;;9.90;70.14;99936.72;5091305;28;20055;-65
2021/04/10 04:28:00;;;;;;;34.63;26.65;;;;;;;9.91;70.42;99934.75;5091719;28;20476;-64
2021/04/10 04:30:28;;;;;;;36.17;28.50;;;;;;;9.92;70.27;99951.13;5091632;28;20052;-64
2021/04/10 04:32:55;;;;;;;31.30;26.65;;;;;;;9.91;70.47;99940.31;5091697;28;20055;-64
2021/04/10 04:35:22;;;;;;;32.13;25.25;;;;;;;9.93;69.79;99944.44;5092814;28;20473;-64
2021/04/10 04:37:49;;;;;;;31.65;25.67;;;;;;;9.92;69.92;99942.78;5095320;28;20066;-64
2021/04/10 04:40:16;;;;;;;31.98;25.75;;;;;;;9.94;69.61;99950.81;5095335;28;20067;-64
2021/04/10 04:42:43;;;;;;;31.63;25.73;;;;;;;9.93;69.72;99955.56;5095843;28;20055;-64
2021/04/10 04:45:11;;;;;;;31.98;25.17;;;;;;;9.96;69.64;99956.88;5095172;28;20052;-64
2021/04/10 04:47:39;;;;;;;31.80;26.50;;;;;;;9.96;68.65;99954.91;5095254;28;20059;-64
2021/04/10 04:50:07;;;;;;;33.15;27.30;;;;;;;9.93;68.87;99957.50;5095187;28;20044;-64
2021/04/10 04:52:34;;;;;;;33.47;25.98;;;;;;;9.88;69.04;99950.13;5095304;28;20055;-64
2021/04/10 04:55:01;;;;;;;30.80;26.65;;;;;;;9.79;69.44;99949.31;5094336;28;20059;-64
2021/04/10 04:57:28;;;;;;;33.20;27.98;;;;;;;9.78;69.31;99958.78;5095137;28;20492;-64
2021/04/10 04:59:55;;;;;;;36.22;28.35;;;;;;;9.75;70.15;99959.44;5094974;28;20059;-64
2021/04/10 05:02:22;;;;;;;37.05;28.90;;;;;;;9.75;70.51;99965.81;5095079;28;20052;-64
2021/04/10 05:04:50;;;;;;;34.33;28.67;;;;;;;9.77;69.85;99959.13;5095135;28;20055;-64
2021/04/10 05:07:16;;;;;;;35.20;28.35;;;;;;;9.75;69.51;99959.44;5094588;28;20416;-64
2021/04/10 05:09:44;;;;;;;35.42;29.15;;;;;;;9.72;69.97;99958.13;5095237;28;20052;-64
2021/04/10 05:12:11;;;;;;;35.75;28.10;;;;;;;9.77;69.65;99961.91;5095534;28;20052;-64
2021/04/10 05:14:38;;;;;;;36.40;28.73;;;;;;;9.77;69.93;99956.34;5094774;28;20052;-64
2021/04/10 05:17:05;;;;;;;35.55;29.13;;;;;;;9.82;69.69;99964.53;5094569;28;20051;-64
2021/04/10 05:19:32;;;;;;;36.97;29.00;;;;;;;9.85;69.63;99970.28;5094784;28;20439;-64
2021/04/10 05:22:00;;;;;;;36.53;29.67;;;;;;;9.84;70.17;99965.03;5094378;28;20062;-64
2021/04/10 05:24:27;;;;;;;36.22;30.33;;;;;;;9.85;70.02;99970.28;5094020;28;20048;-64
2021/04/10 05:26:56;;;;;;;37.88;29.80;;;;;;;9.84;69.80;99968.63;5094431;28;20048;-64
2021/04/10 05:29:23;;;;;;;34.60;29.10;;;;;;;9.88;69.76;99971.59;5094365;28;20056;-64
2021/04/10 05:31:50;;;;;;;34.08;29.30;;;;;;;9.89;69.96;99976.84;5094399;28;20056;-64
2021/04/10 05:34:19;;;;;;;32.80;27.83;;;;;;;9.90;69.75;99978.44;5094260;28;20051;-64
2021/04/10 05:36:46;;;;;;;32.53;27.23;;;;;;;9.96;69.64;99970.78;5094368;28;20067;-64
2021/04/10 05:39:14;;;;;;;30.35;26.50;;;;;;;9.97;69.59;99977.97;5093738;28;20070;-64
2021/04/10 05:41:41;;;;;;;33.97;27.30;;;;;;;9.90;69.40;99984.03;5094594;28;20048;-64
2021/04/10 05:44:10;;;;;;;34.60;28.10;;;;;;;9.87;69.15;99983.84;5094034;28;20048;-64
2021/04/10 05:46:37;;;;;;;33.35;27.85;;;;;;;9.85;69.46;99986.13;5093370;28;20059;-64
2021/04/10 05:49:04;;;;;;;34.47;27.85;;;;;;;9.86;69.50;99983.03;5093843;28;20059;-64
2021/04/10 05:51:31;;;;;;;36.50;29.10;;;;;;;9.88;69.47;99991.06;5094599;28;20055;-64
2021/04/10 05:53:58;;;;;;;37.53;30.38;;;;;;;9.94;69.70;99987.81;5093750;28;20056;-64
2021/04/10 05:56:26;;;;;;;36.22;29.98;;;;;;;9.90;69.56;99988.78;5094198;28;20052;-64
2021/04/10 05:58:53;;;;;;;37.05;29.83;;;;;;;9.96;69.44;99996.66;5094944;28;20048;-65
2021/04/10 06:01:20;;;;;;;33.30;28.67;;;;;;;10.02;69.60;100002.06;5093553;28;20481;-64
2021/04/10 06:03:47;;;;;;;35.55;28.90;;;;;;;10.11;69.53;100012.06;5093832;28;20060;-64
2021/04/10 06:06:14;;;;;;;35.38;28.77;;;;;;;10.17;69.31;100004.41;5093442;28;20059;-64
2021/04/10 06:08:41;;;;;;;36.92;30.92;;;;;;;10.23;69.04;100011.47;5093952;28;20056;-64
2021/04/10 06:11:08;;;;;;;38.22;30.13;;;;;;;10.30;68.51;100009.03;5093485;28;20051;-64
2021/04/10 06:13:35;;;;;;;36.15;29.25;;;;;;;10.40;68.21;100018.25;5093884;28;20489;-65
2021/04/10 06:16:08;;;;;;;36.00;28.90;;;;;;;10.48;68.00;100004.34;5093382;28;20048;-64
2021/04/10 06:18:35;;;;;;;36.72;28.95;;;;;;;10.63;67.79;100005.84;5093479;28;20489;-64
2021/04/10 06:21:03;;;;;;;34.13;28.73;;;;;;;10.74;67.41;100011.91;5093465;28;20047;-64
2021/04/10 06:23:29;;;;;;;33.97;29.35;;;;;;;10.80;67.10;100009.78;5093411;28;20055;-65
2021/04/10 06:25:56;;;;;;;34.30;29.65;;;;;;;10.90;67.26;100009.47;5094083;28;20400;-65
2021/04/10 06:28:25;;;;;;;35.00;29.23;;;;;;;10.98;67.34;100000.25;5093566;28;20055;-64
2021/04/10 06:30:53;;;;;;;34.67;29.65;;;;;;;11.12;67.52;100011.22;5093649;28;20055;-64
2021/04/10 06:33:23;;;;;;;31.40;27.10;;;;;;;11.30;66.88;100010.06;5093572;28;20520;-64
2021/04/10 06:35:50;;;;;;;33.88;27.20;;;;;;;11.51;66.08;100012.16;5093163;28;20047;-64
2021/04/10 06:38:17;;;;;;;33.45;29.55;;;;;;;11.55;65.75;100013.13;5092500;28;20497;-65
2021/04/10 06:40:45;;;;;;;31.98;27.95;;;;;;;11.66;65.63;100021.97;5093217;28;20062;-64
2021/04/10 06:43:12;;;;;;;33.35;29.65;;;;;;;11.65;65.17;100023.91;5092787;28;20532;-65
2021/04/10 06:45:39;;;;;;;34.40;30.15;;;;;;;11.75;65.13;100015.19;5093645;28;20476;-65
2021/04/10 06:48:13;;;;;;;31.95;28.48;;;;;;;11.84;65.40;100019.91;5093710;28;20051;-65
2021/04/10 06:50:41;;;;;;;30.38;27.17;;;;;;;11.93;64.93;100029.13;5092954;28;20370;-64
2021/04/10 06:53:13;;;;;;;30.98;27.00;;;;;;;11.91;64.54;100028.63;5092322;28;20048;-64
2021/04/10 06:55:48;;;;;;;29.42;25.48;;;;;;;12.02;64.38;100029.91;5074783;28;20049;-64
2021/04/10 06:58:21;;;;;;;28.55;25.35;;;;;;;12.07;64.06;100023.31;5082375;28;20499;-64
2021/04/10 07:00:53;;;;;;;28.33;25.25;;;;;;;12.08;63.78;100031.34;5091721;28;20048;-64
2021/04/10 07:03:22;;;;;;;29.10;25.98;;;;;;;12.07;64.05;100029.69;5073744;28;20421;-64
2021/04/10 07:05:49;;;;;;;28.40;25.37;;;;;;;12.11;63.91;100041.84;5078108;28;20527;-64
2021/04/10 07:08:16;;;;;;;31.75;26.80;;;;;;;12.10;63.68;100040.22;5089748;28;20055;-64
2021/04/10 07:10:43;;;;;;;30.20;26.98;;;;;;;12.15;63.51;100044.78;5093071;28;20067;-64
2021/04/10 07:13:10;;;;;;;32.97;26.55;;;;;;;12.19;63.15;100042.97;5091705;28;20420;-64
2021/04/10 07:15:37;;;;;;;31.63;27.25;;;;;;;12.28;62.88;100045.69;5092066;28;20048;-64
2021/04/10 07:18:06;;;;;;;32.70;28.13;;;;;;;12.44;62.29;100048.75;5091998;28;20385;-64
2021/04/10 07:20:37;;;;;;;32.15;27.73;;;;;;;12.49;62.40;100049.34;5072185;28;20374;-64
2021/04/10 07:23:06;;;;;;;31.00;27.67;;;;;;;12.58;61.94;100047.34;5072723;28;20409;-64
2021/04/10 07:25:35;;;;;;;30.48;27.27;;;;;;;12.73;62.26;100047.91;5075350;28;20059;-64
2021/04/10 07:28:24;;;;;;;32.40;26.90;;;;;;;12.90;61.60;100036.59;5071819;28;20056;-65
2021/04/10 07:30:59;;;;;;;30.63;27.35;;;;;;;13.16;60.56;100032.75;5072677;28;20056;-65
2021/04/10 07:33:27;;;;;;;29.35;26.13;;;;;;;13.37;59.63;100036.34;5084375;28;20048;-36
2021/04/10 07:35:55;;;;;;;28.10;25.05;;;;;;;13.43;61.20;100039.78;5091964;28;20056;-36
2021/04/10 07:38:27;;;;;;;29.98;25.08;;;;;;;13.63;59.79;100037.25;5090251;28;20079;-35
2021/04/10 07:40:54;;;;;;;34.30;26.83;;;;;;;13.66;59.25;100030.97;5089647;28;20052;-34
2021/04/10 07:43:25;;;;;;;29.58;26.38;;;;;;;13.92;58.97;100033.47;5084639;28;20070;-61
2021/04/10 07:46:11;;;;;;;31.40;25.85;;;;;;;14.24;57.45;100042.97;5089256;28;20044;-61
2021/04/10 07:48:38;;;;;;;30.25;27.15;;;;;;;14.57;56.65;100033.63;5084958;28;20048;-61
2021/04/10 07:51:15;;;;;;;28.55;25.45;;;;;;;15.06;55.06;100035.53;5087187;28;20397;-62
2021/04/10 07:53:42;;;;;;;28.75;25.77;;;;;;;15.43;53.49;100039.81;5079676;28;20512;-62
2021/04/10 07:56:09;;;;;;;29.13;26.10;;;;;;;15.63;52.45;100037.94;5086255;28;20040;-62
2021/04/10 07:58:36;;;;;;;28.75;25.65;;;;;;;15.66;52.92;100035.59;5086342;28;20059;-62
2021/04/10 08:01:05;;;;;;;27.73;24.52;;;;;;;15.47;52.79;100030.66;5087771;28;20377;-62
2021/04/10 08:03:35;;;;;;;31.30;27.20;;;;;;;15.21;53.89;100037.56;5091881;28;20048;-62
2021/04/10 08:06:15;;;;;;;;;;;;;;;15.06;54.80;100041.13;5090802;28;20061;-62
2021/04/10 08:08:51;;;;;;;31.38;28.05;;;;;;;14.82;55.32;100049.25;5090056;28;19920;-62
2021/04/10 08:11:30;;;;;;;32.58;28.63;;;;;;;14.54;55.20;100053.94;5086428;28;20055;-62
2021/04/10 08:13:58;;;;;;;31.70;28.27;;;;;;;14.49;55.38;100052.19;5091678;28;20056;-62
2021/04/10 08:16:26;;;;;;;31.48;27.45;;;;;;;14.46;55.60;100052.88;5095763;28;20055;-62
2021/04/10 08:18:55;;;;;;;29.85;26.75;;;;;;;14.46;56.01;100058.47;5095223;28;20043;-62
2021/04/10 08:21:43;;;;;;;28.85;25.85;;;;;;;14.30;56.47;100065.94;5089210;28;20055;-63
2021/04/10 08:24:34;;;;;;;32.13;28.73;;;;;;;14.16;56.52;100064.31;5082438;28;20063;-62
2021/04/10 08:27:03;;;;;;;33.67;28.35;;;;;;;14.03;56.86;100065.47;5076315;28;20071;-62
2021/04/10 08:29:32;;;;;;;31.98;28.55;;;;;;;13.93;57.71;100063.13;5082216;28;20049;-62
2021/04/10 08:31:59;;;;;;;31.88;28.58;;;;;;;13.93;57.20;100077.13;5089913;28;20048;-62
2021/04/10 08:34:29;;;;;;;30.85;27.63;;;;;;;14.04;57.39;100067.09;5094115;28;20071;-62
2021/04/10 08:36:58;;;;;;;;;;;;;;;14.28;55.96;100068.28;5087536;28;20063;-62
2021/04/10 08:39:29;;;;;;;31.90;28.08;;;;;;;14.48;55.33;100061.75;5088961;28;19931;-62
2021/04/10 08:42:00;;;;;;;31.48;27.58;;;;;;;14.75;54.75;100067.84;5093417;28;20052;-62
2021/04/10 08:44:30;;;;;;;33.17;28.13;;;;;;;15.12;54.17;100068.59;5084747;28;20071;-62
2021/04/10 08:46:57;;;;;;;;;;;;;;;15.52;52.90;100067.72;5075477;28;20055;-62
2021/04/10 08:49:28;;;;;;;33.90;28.20;;;;;;;15.83;51.77;100071.78;5079566;28;19928;-62
2021/04/10 08:52:02;;;;;;;30.60;27.30;;;;;;;15.85;51.82;100068.63;5088778;28;20055;-62
2021/04/10 08:54:33;;;;;;;29.65;26.60;;;;;;;15.78;51.77;100070.06;5086723;28;20055;-63
2021/04/10 08:57:05;;;;;;;30.90;27.55;;;;;;;15.92;51.77;100069.66;5093956;28;20048;-63
2021/04/10 08:59:39;;;;;;;31.45;28.13;;;;;;;15.93;51.13;100070.47;5076213;28;20048;-63
2021/04/10 09:02:15;;;;;;;30.83;26.85;;;;;;;16.06;50.68;100072.00;5085669;28;20044;-65
2021/04/10 09:05:07;;;;;;;28.73;25.70;;;;;;;15.94;51.04;100069.28;5084162;28;20055;-63
2021/04/10 09:08:06;;;;;;;31.05;26.40;;;;;;;15.87;51.04;100069.91;5075299;28;20051;-63
2021/04/10 09:10:44;;;;;;;33.92;28.52;;;;;;;15.78;51.47;100075.69;5094148;28;20391;-63
2021/04/10 09:13:41;;;;;;;30.65;27.33;;;;;;;15.83;51.00;100077.41;5086361;28;20063;-63
2021/04/10 09:16:33;;;;;;;30.52;27.38;;;;;;;15.74;50.54;100077.56;5078450;28;20071;-63
2021/04/10 09:19:04;;;;;;;31.63;27.90;;;;;;;15.81;50.75;100079.75;5093364;28;20059;-63
2021/04/10 09:21:37;;;;;;;31.85;27.98;;;;;;;15.82;51.19;100085.03;5085341;28;20044;-63
2021/04/10 09:24:24;;;;;;;31.08;27.55;;;;;;;15.67;50.95;100076.56;5085094;28;20507;-63
2021/04/10 09:26:59;;;;;;;33.17;28.30;;;;;;;15.43;52.39;100075.47;5094642;28;20096;-63
2021/04/10 09:29:26;;;;;;;34.50;28.27;;;;;;;15.26;52.89;100084.19;5094089;28;20397;-60
2021/04/10 09:31:59;;;;;;;31.45;28.02;;;;;;;15.22;52.30;100084.06;5094177;28;20059;-65
2021/04/10 09:34:52;;;;;;;32.58;29.08;;;;;;;15.19;52.09;100090.41;5093618;28;20059;-61
2021/04/10 09:38:01;;;;;;;40.47;30.05;;;;;;;15.11;52.06;100092.19;5079459;28;20060;-62
2021/04/10 09:40:50;;;;;;;36.10;30.08;;;;;;;15.05;52.96;100089.97;5091376;28;20067;-62
2021/04/10 09:43:22;;;;;;;34.22;29.05;;;;;;;15.11;52.70;100094.19;5078750;28;20048;-61
2021/04/10 09:45:50;;;;;;;41.33;31.52;;;;;;;15.12;52.88;100093.00;5093971;28;20055;-61
2021/04/10 09:48:30;;;;;;;33.40;29.73;;;;;;;15.30;51.88;100085.94;5092222;28;20488;-61
2021/04/10 09:51:18;;;;;;;35.00;30.13;;;;;;;15.77;51.26;100081.66;5087593;28;20057;-61
2021/04/10 09:53:48;;;;;;;34.33;29.98;;;;;;;15.90;51.86;100083.25;5087046;28;20055;-61
2021/04/10 09:56:16;;;;;;;38.00;32.47;;;;;;;15.81;51.87;100074.16;5081693;28;20055;-62
2021/04/10 09:58:56;;;;;;;35.40;30.52;;;;;;;15.82;51.52;100073.78;5088346;28;20051;-62
2021/04/10 10:01:25;;;;;;;33.15;29.52;;;;;;;15.66;51.52;100078.53;5089364;28;20040;-61
2021/04/10 10:03:52;;;;;;;33.95;30.35;;;;;;;15.62;51.87;100072.00;5073251;28;20063;-62
2021/04/10 10:06:38;;;;;;;35.45;30.42;;;;;;;15.48;52.37;100080.84;5075484;28;20051;-62
2021/04/10 10:09:26;;;;;;;34.80;29.92;;;;;;;15.49;52.67;100076.03;5085828;28;20055;-62
2021/04/10 10:11:55;;;;;;;36.65;30.10;;;;;;;15.40;52.98;100079.00;5092575;28;20052;-61
2021/04/10 10:14:24;;;;;;;37.00;31.50;;;;;;;15.43;53.12;100075.47;5093084;28;20066;-62
2021/04/10 10:16:51;;;;;;;35.05;30.23;;;;;;;15.54;52.42;100079.41;5091022;28;20075;-62
2021/04/10 10:19:19;;;;;;;33.50;29.60;;;;;;;15.67;52.35;100073.75;5080873;28;20064;-62
2021/04/10 10:21:47;;;;;;;33.63;29.73;;;;;;;15.87;52.39;100080.31;5089950;28;20130;-63
2021/04/10 10:24:21;;;;;;;34.35;29.52;;;;;;;16.22;51.69;100069.22;5087494;28;20048;-62
2021/04/10 10:26:48;;;;;;;34.92;30.85;;;;;;;16.55;50.92;100063.22;5093122;28;20059;-62
2021/04/10 10:29:20;;;;;;;32.58;29.05;;;;;;;16.83;49.44;100056.66;5093367;28;20408;-62
2021/04/10 10:31:50;;;;;;;32.90;29.15;;;;;;;17.07;49.53;100054.75;5093111;28;20086;-62
2021/04/10 10:34:20;;;;;;;32.30;28.98;;;;;;;17.17;48.75;100048.53;5093038;28;20055;-62
2021/04/10 10:36:50;;;;;;;32.08;28.65;;;;;;;17.40;47.18;100052.22;5093258;28;20052;-62
2021/04/10 10:39:26;;;;;;;31.05;27.67;;;;;;;17.49;46.45;100037.94;5092407;28;20063;-62
2021/04/10 10:41:54;;;;;;;33.10;28.85;;;;;;;17.56;47.22;100037.28;5092448;28;20063;-62
2021/04/10 10:44:22;;;;;;;31.80;28.52;;;;;;;17.51;47.77;100029.91;5093231;28;20055;-62
2021/04/10 10:46:58;;;;;;;31.85;26.80;;;;;;;17.54;46.49;100037.63;5092933;28;20052;-65
2021/04/10 10:49:25;;;;;;;31.10;27.83;;;;;;;17.55;46.80;100027.19;5093267;28;20056;-62
2021/04/10 10:51:52;;;;;;;31.17;27.58;;;;;;;17.47;46.83;100036.66;5092761;28;20056;-62
2021/04/10 10:54:29;;;;;;;30.92;27.63;;;;;;;17.45;46.93;100031.44;5092778;28;20070;-62
2021/04/10 10:56:56;;;;;;;31.98;27.90;;;;;;;17.40;47.80;100026.91;5092793;28;20055;-62
2021/04/10 10:59:28;;;;;;;30.55;27.45;;;;;;;17.45;47.57;100029.44;5092928;28;20052;-62
2021/04/10 11:01:55;;;;;;;28.85;25.85;;;;;;;17.62;46.94;100024.50;5092869;28;20051;-60
2021/04/10 11:04:26;;;;;;;31.08;27.88;;;;;;;17.85;46.50;100018.94;5092850;28;20056;-62
2021/04/10 11:06:57;;;;;;;29.75;26.73;;;;;;;17.83;46.07;100016.47;5092845;28;20048;-62
2021/04/10 11:09:26;;;;;;;29.00;26.08;;;;;;;17.60;46.81;100018.44;5092297;28;20071;-62
2021/04/10 11:11:56;;;;;;;32.42;28.45;;;;;;;17.20;47.88;100011.22;5093346;28;20059;-62
2021/04/10 11:14:26;;;;;;;30.85;27.52;;;;;;;16.89;49.69;100017.78;5092777;28;20059;-62
2021/04/10 11:16:55;;;;;;;29.00;25.67;;;;;;;16.73;48.58;100009.38;5092482;28;20064;-61
2021/04/10 11:19:26;;;;;;;31.33;27.90;;;;;;;16.63;49.90;100011.59;5092949;28;20150;-62
2021/04/10 11:21:54;;;;;;;30.33;27.05;;;;;;;16.51;49.98;100008.06;5092627;28;20059;-63
2021/04/10 11:24:22;;;;;;;29.40;26.30;;;;;;;16.37;50.40;100003.72;5090523;28;20519;-62
2021/04/10 11:26:52;;;;;;;31.45;28.25;;;;;;;16.27;51.07;100009.09;5092670;28;20059;-63
2021/04/10 11:29:34;;;;;;;32.13;28.33;;;;;;;16.17;51.63;100014.09;5092837;28;20408;-64
2021/04/10 11:32:20;;;;;;;30.92;27.63;;;;;;;16.05;52.56;100000.16;5092750;28;20063;-63
2021/04/10 11:35:15;;;;;;;30.00;26.80;;;;;;;16.10;52.99;99999.88;5092647;28;20066;-62